Flight Track Log - Related Links

Times and Time Zones

All times are in EDT time to prevent confusion due to time zone crossing. See the AZU2455 flight status page for this flight to view local times or setup timezone preferences in your user account.

Time Position Orientation Groundspeed Altitude Reporting Facility
EDT Latitude Longitude Course Direction KTS MPH feet Rate Location/Type
Mon 06:11:00 AM -27.3542 -49.0755 214° Southwest  Level Estimated
Mon 06:12:00 AM -27.4044 -49.1141 214° Southwest  Level Estimated
Mon 06:13:00 AM -27.4545 -49.1528 214° Southwest  Level Estimated
Mon 06:14:00 AM -27.5046 -49.1915 214° Southwest  Level Estimated
Mon 06:15:00 AM -27.5547 -49.2302 214° Southwest  Level Estimated
Mon 06:16:00 AM -27.6048 -49.2690 214° Southwest  Level Estimated
Mon 06:17:00 AM -27.6549 -49.3078 214° Southwest  Level Estimated
Mon 06:18:00 AM -27.7050 -49.3466 214° Southwest  Level Estimated
Mon 06:19:00 AM -27.7550 -49.3854 214° Southwest  Level Estimated
Mon 06:20:00 AM -27.8051 -49.4244 215° Southwest  Level Estimated
Mon 06:21:00 AM -27.8551 -49.4633 215° Southwest  Level Estimated
Mon 06:22:00 AM -27.9052 -49.5023 215° Southwest  Level Estimated
Mon 06:23:00 AM -27.9552 -49.5413 215° Southwest  Level Estimated
Mon 06:24:00 AM -28.0052 -49.5803 215° Southwest  Level Estimated
Mon 06:25:00 AM -28.0552 -49.6194 215° Southwest  Level Estimated
Mon 06:26:00 AM -28.1052 -49.6585 215° Southwest  Level Estimated
Mon 06:27:00 AM -28.1552 -49.6977 215° Southwest  Level Estimated
Mon 06:28:00 AM -28.2051 -49.7369 215° Southwest  Level Estimated
Mon 06:29:00 AM -28.2551 -49.7761 215° Southwest  Level Estimated
Mon 06:30:00 AM -28.3050 -49.8153 215° Southwest  Level Estimated
Mon 06:31:00 AM -28.3550 -49.8546 215° Southwest  Level Estimated
Mon 06:32:00 AM -28.4049 -49.8940 215° Southwest  Level Estimated
Mon 06:33:00 AM -28.4548 -49.9333 215° Southwest  Level Estimated
Mon 06:34:00 AM -28.5047 -49.9728 215° Southwest  Level Estimated
Mon 06:35:00 AM -28.5776 -50.0304 215° Southwest  Level Estimated
Mon 06:36:00 AM -28.6505 -50.0882 215° Southwest  Level Estimated
Mon 06:37:00 AM -28.7233 -50.1460 215° Southwest  Level Estimated
Mon 06:38:00 AM -28.7961 -50.2039 215° Southwest  Level Estimated
Mon 06:39:00 AM -28.8689 -50.2618 215° Southwest  Level Estimated
Mon 06:40:00 AM -28.9417 -50.3199 215° Southwest  Level Estimated
Mon 06:41:00 AM -29.0145 -50.3780 215° Southwest  Level Estimated
Mon 06:42:00 AM -29.0872 -50.4363 215° Southwest  Level Estimated
Mon 06:43:00 AM -29.1599 -50.4946 215° Southwest  Level Estimated
Mon 06:44:00 AM -29.2325 -50.5530 215° Southwest  Level Estimated
Mon 06:45:00 AM -29.3052 -50.6114 215° Southwest  Level Estimated
Mon 06:45:42 AM -29.1038 -50.6497 220° Southwest 265 305 18,000  Level FlightAware ADS-B (SBCO / QNS)
Mon 06:46:11 AM -29.1303 -50.6748 220° Southwest 266 306 18,000  Level FlightAware ADS-B (SBCO / QNS)
Mon 06:46:39 AM -29.1569 -50.7002 220° Southwest 266 306 18,000  Level FlightAware ADS-B (SBCO / QNS)
Mon 06:47:10 AM -29.1817 -50.7238 220° Southwest 264 304 18,000  Level FlightAware ADS-B (SBCO / QNS)
Mon 06:47:42 AM -29.2164 -50.7569 221° Southwest 266 306 18,000  Level FlightAware ADS-B (SBCO / QNS)
Mon 06:48:12 AM -29.2449 -50.7842 220° Southwest 267 307 18,000  Level FlightAware ADS-B (SBCO / QNS)
Mon 06:48:40 AM -29.2716 -50.8097 221° Southwest 266 306 18,000  Level FlightAware ADS-B (SBCO / QNS)
Mon 06:49:09 AM -29.2988 -50.8358 220° Southwest 266 306 18,000  Level FlightAware ADS-B (SBCO / QNS)
Mon 06:49:39 AM -29.3273 -50.8630 220° Southwest 266 306 18,000  Level FlightAware ADS-B (SBCO / QNS)
Mon 06:50:12 AM -29.3557 -50.8903 220° Southwest 267 307 18,000  Level FlightAware ADS-B (SBCO / QNS)
Mon 06:50:38 AM -29.3832 -50.9167 221° Southwest 269 310 18,000  Level FlightAware ADS-B (SBCO / QNS)
Mon 06:51:10 AM -29.4122 -50.9445 220° Southwest 269 310 18,000  Level FlightAware ADS-B (SBCO / QNS)
Mon 06:51:39 AM -29.4409 -50.9721 221° Southwest 268 308 18,000  Level FlightAware ADS-B (SBCO / QNS)
Mon 06:52:08 AM -29.4687 -50.9987 221° Southwest 266 306 18,000 -448 Level FlightAware ADS-B (SBCO / QNS)
Mon 06:52:46 AM -29.5049 -51.0338 221° Southwest 276 318 17,500 -1,371 Descending FlightAware ADS-B (SBCO / QNS)
Mon 06:53:18 AM -29.5350 -51.0628 221° Southwest 270 311 16,400 -2,105 Descending FlightAware ADS-B (SBCO / QNS)
Mon 06:53:43 AM -29.5596 -51.0864 221° Southwest 266 306 15,500 -2,069 Descending FlightAware ADS-B (SBCO / QNS)
Mon 06:54:16 AM -29.5898 -51.1153 221° Southwest 260 299 14,400 -2,000 Descending FlightAware ADS-B (SBCO / QNS)
Mon 06:54:46 AM -29.6167 -51.1413 221° Southwest 258 297 13,400 -2,066 Descending FlightAware ADS-B (SBCO / QNS)
Mon 06:55:17 AM -29.6446 -51.1685 221° Southwest 254 292 12,300 -1,869 Descending FlightAware ADS-B (SBCO / QNS)
Mon 06:55:47 AM -29.6719 -51.1949 221° Southwest 244 281 11,500 -1,800 Descending FlightAware ADS-B (SBCO / QNS)
Mon 06:56:17 AM -29.6978 -51.2201 221° Southwest 238 274 10,500 -1,800 Descending FlightAware ADS-B (SBCO / QNS)
Mon 06:56:37 AM -29.7139 -51.2357 221° Southwest 232 267 10,000 -1,588 Descending FlightAware ADS-B (SBCO / QNS)
Mon 06:56:51 AM -29.7256 -51.2469 221° Southwest 227 261 9,600 -1,862 Descending FlightAware ADS-B (SBCO / QNS)
Mon 06:57:06 AM -29.7377 -51.2587 221° Southwest 224 258 9,100 -1,655 Descending FlightAware ADS-B (SBCO / QNS)
Mon 06:57:20 AM -29.7487 -51.2693 221° Southwest 221 254 8,800 -1,548 Descending FlightAware ADS-B (SBCO / QNS)
Mon 06:57:37 AM -29.7620 -51.2822 221° Southwest 222 255 8,300 -1,742 Descending FlightAware ADS-B (SBCO / QNS)
Mon 06:57:51 AM -29.7728 -51.2927 221° Southwest 222 255 7,900 -1,655 Descending FlightAware ADS-B (SBCO / QNS)
Mon 06:58:06 AM -29.7851 -51.3046 220° Southwest 222 255 7,500 -1,600 Descending FlightAware ADS-B (SBCO / QNS)
Mon 06:58:21 AM -29.7964 -51.3156 221° Southwest 224 258 7,100 -1,600 Descending FlightAware ADS-B (SBCO / QNS)
Mon 06:58:36 AM -29.8075 -51.3263 221° Southwest 225 259 6,700 -1,600 Descending FlightAware ADS-B (SBCO / QNS)
Mon 06:58:51 AM -29.8204 -51.3389 221° Southwest 225 259 6,300 -1,548 Descending FlightAware ADS-B (SBCO / QNS)
Mon 06:59:07 AM -29.8334 -51.3515 221° Southwest 224 258 5,900 -1,500 Descending FlightAware ADS-B (SBCO / QNS)
Mon 06:59:23 AM -29.8448 -51.3627 221° Southwest 223 257 5,500 -1,500 Descending FlightAware ADS-B (SBCO / QNS)
Mon 06:59:35 AM -29.8548 -51.3723 221° Southwest 222 255 5,200 -1,556 Descending FlightAware ADS-B (SBCO / QNS)
Mon 06:59:50 AM -29.8669 -51.3841 221° Southwest 222 255 4,800 -1,500 Descending FlightAware ADS-B (SBCO / QNS)
Mon 07:00:07 AM -29.8801 -51.3969 220° Southwest 222 255 4,400 -1,412 Descending FlightAware ADS-B (SBCO / QNS)
Mon 07:00:41 AM -29.9129 -51.4051 163° South 233 268 3,600 -1,412 Descending FlightAware ADS-B (SBCO / QNS)
Mon 07:03:00 AM -29.9897 -51.1850 112° Southeast  Level Estimated
Mon 07:04:00 AM -29.9944 -51.1714 112° Southeast  Level Estimated
Mon 07:05:00 AM -29.9944 -51.1714 North  Level Estimated
Mon 07:06:00 AM -29.9944 -51.1714 North  Level Estimated
Mon 07:07:00 AM -29.9944 -51.1714 North  Level Estimated
Mon 07:08:00 AM -29.9944 -51.1714 North  Level Estimated
Mon 07:09:00 AM -29.9944 -51.1714 North  Level Estimated

Login

Don't have an account? Register now (free) for customized features, flight alerts, and more!